メインページ
METAR-TAF:

METAR-TAF

空港 :

ヘイダル・アリエフ国際空港

バクー, アゼルバイジャン

緯度: 40-27N, 経度: 050-04E, 海抜: -6m

現時点の気象観測

当レポートは22分前の18:00(UTC)に作成
西/北西の風 3kt
気温 5°C
湿度 93%
気圧 1032 hPa
視程10km以上
高度2500ftの雲はほとんどない

METAR: UBBB 171800Z 29003KT 9999 FEW025 05/04 Q1032 R88/CLRD// NOSIG

時間: 22:22 (18:22 UTC)

予報

当レポートは1時間18分前の17:04(UTC)に作成
予報は17日の 18時(UTC)から 18日の 18時(UTC)まで有効
変向風 4kt
視程10km以上
高度2500ftの雲は散在している
17日の 18時(UTC)から 18日の 04時(UTC)まで一時的に
北/北西の風 6kt
視程: 3000m
高度600ftの雲は散在している
高度1500ftの雲は散在している
18日の 04時(UTC)から 18日の 06時(UTC)まで徐々に
北東の風 10kt
高度1500ftの雲は散在している
高度10000ftの千切れ雲あり
18日の 06時(UTC)から 18日の 18時(UTC)まで一時的に
の風 14kt
高度2500ftの雲は散在している, 積乱雲.
高度4000ftの曇り

TAF: UBBB 171704Z 1718/1818 VRB04KT 9999 SCT025 TX14/1810Z TN05/1802Z TEMPO 1718/1804 33006KT 3000 BR SCT006 SCT015 BECMG 1804/1806 04010KT SCT015 BKN100 TEMPO 1806/1818 08014KT SCT025CB OVC040

4,000以上の空港の気象観測と天気予報(METAR報とTAF報)

利用可能な観測所は地図上に黄色い丸と赤い丸で示す。

丸の上にカーソルを重ねると観測所名を参照できる。

次にクリックすると気象観測と天気予報を参照できる。

マップの切り替え:黒色「×」印の緑ボタンをクリックして拡大、「-」印の緑ボタンをクリックして縮小、緑色の三角印をクリックして隣りの地図に切り替え


METAR-TAF: